createdAt,value
2022-11-01T00:01:50.131Z,101172.59
2022-11-01T00:04:17.089Z,101173.97
2022-11-01T00:06:43.569Z,101161.03
2022-11-01T00:09:09.953Z,101166.41
2022-11-01T00:11:36.557Z,101167.44
2022-11-01T00:14:03.005Z,101160.91
2022-11-01T00:16:29.392Z,101163.50
2022-11-01T00:18:56.082Z,101179.84
2022-11-01T00:21:22.688Z,101185.91
2022-11-01T00:23:49.258Z,101184.41
2022-11-01T00:26:19.406Z,101175.22
2022-11-01T00:28:46.299Z,101176.91
2022-11-01T00:31:14.661Z,101183.25
2022-11-01T00:33:41.050Z,101178.63
2022-11-01T00:36:08.655Z,101175.47
2022-11-01T00:38:35.729Z,101158.09
2022-11-01T00:41:03.892Z,101157.50
2022-11-01T00:43:34.342Z,101156.56
2022-11-01T00:46:01.267Z,101151.88
2022-11-01T00:48:28.154Z,101146.50
2022-11-01T00:50:54.757Z,101141.09
2022-11-01T00:53:21.446Z,101141.78
2022-11-01T00:55:47.859Z,101139.28
2022-11-01T00:58:14.343Z,101132.13
2022-11-01T01:00:40.762Z,101121.31
2022-11-01T01:03:07.377Z,101128.16
2022-11-01T01:05:35.261Z,101117.38
2022-11-01T01:08:02.343Z,101119.53
2022-11-01T01:10:28.746Z,101122.88
2022-11-01T01:12:55.149Z,101117.09
2022-11-01T01:15:21.544Z,101121.88
2022-11-01T01:17:47.927Z,101130.13
2022-11-01T01:20:14.524Z,101133.78
2022-11-01T01:22:41.722Z,101137.75
2022-11-01T01:25:09.454Z,101144.97
2022-11-01T01:27:36.253Z,101146.47
2022-11-01T01:30:03.910Z,101139.13
2022-11-01T01:32:30.752Z,101144.81
2022-11-01T01:34:57.145Z,101146.25
2022-11-01T01:37:23.554Z,101137.00
2022-11-01T01:39:49.965Z,101122.66
2022-11-01T01:42:24.060Z,101119.53
2022-11-01T01:44:56.425Z,101099.75
2022-11-01T01:47:26.114Z,101099.75
2022-11-01T01:50:00.334Z,101104.72
2022-11-01T01:52:30.413Z,101097.34
2022-11-01T01:54:59.058Z,101086.72
2022-11-01T01:57:26.235Z,101080.06
2022-11-01T01:59:52.727Z,101076.66
2022-11-01T02:02:20.476Z,101073.53
2022-11-01T02:04:57.960Z,101066.38
2022-11-01T02:07:25.168Z,101064.81
2022-11-01T02:09:52.871Z,101057.38
2022-11-01T02:12:19.289Z,101053.56
2022-11-01T02:14:46.040Z,101043.22
2022-11-01T02:17:43.498Z,101050.38
2022-11-01T02:20:37.150Z,101042.19
2022-11-01T02:23:13.245Z,101042.78
2022-11-01T02:26:04.341Z,101036.84
2022-11-01T02:28:50.249Z,101035.97
2022-11-01T02:31:41.552Z,101028.31
2022-11-01T02:34:24.544Z,101021.50
2022-11-01T02:37:00.452Z,101016.91
2022-11-01T02:39:32.618Z,101019.84
2022-11-01T02:42:09.772Z,101024.88
2022-11-01T02:44:41.841Z,101025.47
2022-11-01T02:47:11.790Z,101022.69
2022-11-01T02:49:41.465Z,101022.81
2022-11-01T02:52:11.768Z,101015.16
2022-11-01T02:54:49.324Z,101020.91
2022-11-01T02:57:36.268Z,101036.97
2022-11-01T03:00:24.524Z,101039.78
2022-11-01T03:02:58.174Z,101038.09
2022-11-01T03:05:39.247Z,101037.03
2022-11-01T03:08:14.249Z,101043.91
2022-11-01T03:10:57.241Z,101038.69
2022-11-01T03:13:32.415Z,101040.38
2022-11-01T03:16:20.768Z,101041.50
2022-11-01T03:18:59.439Z,101046.84
2022-11-01T03:21:28.212Z,101042.97
2022-11-01T03:24:03.266Z,101039.88
2022-11-01T03:26:34.806Z,101047.44
2022-11-01T03:29:06.640Z,101042.69
2022-11-01T03:31:36.747Z,101029.78
2022-11-01T03:34:11.078Z,101036.00
2022-11-01T03:36:51.485Z,101035.97
2022-11-01T03:39:22.699Z,101041.44
2022-11-01T03:41:53.405Z,101036.84
2022-11-01T03:44:20.009Z,101023.72
2022-11-01T03:46:47.204Z,101022.13
2022-11-01T03:49:18.429Z,101013.53
2022-11-01T03:51:44.958Z,101011.56
2022-11-01T03:54:11.371Z,101011.56
2022-11-01T03:56:40.595Z,101014.81
2022-11-01T03:59:08.492Z,101018.66
2022-11-01T04:01:35.230Z,101018.66
2022-11-01T04:04:01.876Z,101010.25
2022-11-01T04:06:28.580Z,101013.06
2022-11-01T04:08:55.588Z,101013.25
2022-11-01T04:11:22.003Z,101014.00
2022-11-01T04:13:48.401Z,101028.56
2022-11-01T04:16:53.763Z,101032.44
2022-11-01T04:19:39.137Z,101047.81
2022-11-01T04:22:05.897Z,101039.03
2022-11-01T04:24:32.278Z,101038.75
2022-11-01T04:26:58.662Z,101036.53
2022-11-01T04:29:25.043Z,101025.69
2022-11-01T04:31:51.427Z,101016.84
2022-11-01T04:34:37.760Z,101021.31
2022-11-01T04:37:04.169Z,101021.03
2022-11-01T04:39:30.622Z,101027.78
2022-11-01T04:41:57.016Z,101022.22
2022-11-01T04:44:23.418Z,101024.38
2022-11-01T04:46:49.814Z,101022.22
2022-11-01T04:49:16.201Z,101018.75
2022-11-01T04:51:42.701Z,101002.63
2022-11-01T04:54:09.119Z,101008.41
2022-11-01T04:56:35.513Z,101005.38
2022-11-01T04:59:01.920Z,101009.06
2022-11-01T05:01:28.404Z,100997.47
2022-11-01T05:03:55.698Z,100987.84
2022-11-01T05:06:22.099Z,100985.50
2022-11-01T05:08:48.907Z,100975.28
2022-11-01T05:11:15.293Z,100954.19
2022-11-01T05:13:41.857Z,100971.88
2022-11-01T05:16:19.781Z,100975.13
2022-11-01T05:18:46.340Z,100962.13
2022-11-01T05:21:12.745Z,100962.38
2022-11-01T05:23:39.145Z,100953.63
2022-11-01T05:26:05.652Z,100957.34
2022-11-01T05:28:32.035Z,100965.69
2022-11-01T05:30:58.685Z,100960.63
2022-11-01T05:33:25.073Z,100974.13
2022-11-01T05:35:51.473Z,100976.28
2022-11-01T05:38:17.870Z,100969.00
2022-11-01T05:40:44.258Z,100986.34
2022-11-01T05:43:10.654Z,100967.91
2022-11-01T05:45:37.345Z,100979.50
2022-11-01T05:48:04.799Z,100993.25
2022-11-01T05:50:31.183Z,100999.66
2022-11-01T05:53:07.447Z,101013.06
2022-11-01T05:55:34.337Z,101005.25
2022-11-01T05:58:00.751Z,100994.84
2022-11-01T06:00:27.186Z,101000.41
2022-11-01T06:02:53.563Z,101001.22
2022-11-01T06:05:19.941Z,100991.47
2022-11-01T06:07:46.354Z,100993.69
2022-11-01T06:10:12.716Z,100989.63
2022-11-01T06:12:39.113Z,100984.75
2022-11-01T06:15:05.886Z,100966.06
2022-11-01T06:17:32.269Z,100975.63
2022-11-01T06:19:58.714Z,100978.63
2022-11-01T06:22:25.130Z,100977.38
2022-11-01T06:24:51.535Z,100974.56
2022-11-01T06:27:17.932Z,100981.91
2022-11-01T06:29:44.310Z,100985.81
2022-11-01T06:32:10.710Z,100983.31
2022-11-01T06:34:40.849Z,100993.13
2022-11-01T06:37:10.405Z,100991.72
2022-11-01T06:39:36.805Z,100995.06
2022-11-01T06:42:03.293Z,100989.22
2022-11-01T06:44:29.680Z,100991.25
2022-11-01T06:46:56.049Z,100992.91
2022-11-01T06:49:22.529Z,100977.72
2022-11-01T06:51:49.158Z,100989.22
2022-11-01T06:54:15.549Z,100992.81
2022-11-01T06:56:41.949Z,101005.44
2022-11-01T06:59:08.638Z,101002.13
2022-11-01T07:01:35.151Z,100995.94
2022-11-01T07:04:01.690Z,100997.63
2022-11-01T07:06:30.768Z,100997.31
2022-11-01T07:08:59.289Z,100996.13
2022-11-01T07:11:30.997Z,101010.13
2022-11-01T07:13:59.218Z,101019.16
2022-11-01T07:16:26.790Z,101014.69
2022-11-01T07:18:53.187Z,101015.81
2022-11-01T07:21:19.598Z,101014.31
2022-11-01T07:23:46.227Z,101027.00
2022-11-01T07:26:12.630Z,101042.69
2022-11-01T07:28:39.599Z,101053.94
2022-11-01T07:31:06.305Z,101050.81
2022-11-01T07:33:32.823Z,101049.66
2022-11-01T07:36:01.001Z,101053.38
2022-11-01T07:38:27.397Z,101062.84
2022-11-01T07:40:54.672Z,101075.69
2022-11-01T07:43:21.901Z,101096.16
2022-11-01T07:45:48.892Z,101083.56
2022-11-01T07:48:17.468Z,101077.63
2022-11-01T07:50:44.691Z,101072.59
2022-11-01T07:53:16.808Z,101074.16
2022-11-01T07:55:44.199Z,101056.22
2022-11-01T07:58:12.034Z,101063.41
2022-11-01T08:00:39.755Z,101067.84
2022-11-01T08:03:09.182Z,101082.78
2022-11-01T08:05:36.549Z,101074.66
2022-11-01T08:08:03.288Z,101065.63
2022-11-01T08:10:30.315Z,101073.56
2022-11-01T08:13:02.208Z,101065.03
2022-11-01T08:15:28.995Z,101065.91
2022-11-01T08:17:57.198Z,101058.31
2022-11-01T08:20:25.804Z,101067.78
2022-11-01T08:22:53.103Z,101070.34
2022-11-01T08:25:19.596Z,101071.31
2022-11-01T08:27:46.939Z,101084.66
2022-11-01T08:30:14.890Z,101083.75
2022-11-01T08:32:41.374Z,101087.31
2022-11-01T08:35:08.869Z,101085.88
2022-11-01T08:37:35.270Z,101086.66
2022-11-01T08:40:03.551Z,101076.56
2022-11-01T08:42:29.960Z,101083.56
2022-11-01T08:44:56.457Z,101084.81
2022-11-01T08:47:22.846Z,101089.78
2022-11-01T08:49:49.256Z,101075.16
2022-11-01T08:52:15.655Z,101084.06
2022-11-01T08:54:42.091Z,101099.47
2022-11-01T08:57:08.480Z,101090.78
2022-11-01T08:59:34.868Z,101082.53
2022-11-01T09:02:01.362Z,101089.47
2022-11-01T09:04:27.896Z,101091.38
2022-11-01T09:06:54.283Z,101091.28
2022-11-01T09:09:20.794Z,101087.47
2022-11-01T09:11:47.191Z,101085.28
2022-11-01T09:14:13.573Z,101074.16
2022-11-01T09:16:40.041Z,101069.56
2022-11-01T09:19:06.473Z,101069.28
2022-11-01T09:21:32.878Z,101069.13
2022-11-01T09:23:59.902Z,101053.25
2022-11-01T09:26:27.298Z,101059.44
2022-11-01T09:28:58.537Z,101063.22
2022-11-01T09:31:25.277Z,101087.34
2022-11-01T09:33:54.946Z,101093.59
2022-11-01T09:36:21.479Z,101108.69
2022-11-01T09:38:47.886Z,101107.31
2022-11-01T09:41:37.010Z,101120.47
2022-11-01T09:44:06.089Z,101121.31
2022-11-01T09:46:42.346Z,101119.75
2022-11-01T09:49:12.528Z,101106.75
2022-11-01T09:51:41.246Z,101122.81
2022-11-01T09:54:10.419Z,101122.41
2022-11-01T09:56:45.580Z,101124.69
2022-11-01T09:59:44.577Z,101135.75
2022-11-01T10:02:39.002Z,101128.06
2022-11-01T10:05:40.865Z,101132.53
2022-11-01T10:08:21.508Z,101137.88
2022-11-01T10:11:14.914Z,101124.00
2022-11-01T10:14:20.960Z,101105.41
2022-11-01T10:17:14.640Z,101112.28
2022-11-01T10:19:48.235Z,101101.72
2022-11-01T10:22:32.379Z,101101.63
2022-11-01T10:25:07.020Z,101092.84
2022-11-01T10:27:42.782Z,101098.81
2022-11-01T10:30:18.228Z,101109.88
2022-11-01T10:33:02.311Z,101122.25
2022-11-01T10:35:44.639Z,101132.56
2022-11-01T10:38:41.457Z,101145.84
2022-11-01T10:41:21.355Z,101151.41
2022-11-01T10:43:54.165Z,101154.75
2022-11-01T10:46:27.882Z,101138.94
2022-11-01T10:48:59.606Z,101131.75
2022-11-01T10:51:29.887Z,101136.13
2022-11-01T10:54:01.940Z,101135.00
2022-11-01T10:56:35.461Z,101141.06
2022-11-01T10:59:08.081Z,101137.09
2022-11-01T11:01:44.146Z,101134.19
2022-11-01T11:04:22.362Z,101146.84
2022-11-01T11:06:49.616Z,101149.34
2022-11-01T11:09:28.731Z,101145.13
2022-11-01T11:11:59.965Z,101151.41
2022-11-01T11:14:28.634Z,101143.28
2022-11-01T11:16:56.874Z,101155.50
2022-11-01T11:19:29.162Z,101157.97
2022-11-01T11:21:56.903Z,101162.91
2022-11-01T11:24:36.014Z,101161.97
2022-11-01T11:27:10.605Z,101159.69
2022-11-01T11:29:48.848Z,101158.63
2022-11-01T11:32:19.980Z,101161.16
2022-11-01T11:35:08.820Z,101159.78
2022-11-01T11:37:38.605Z,101155.81
2022-11-01T11:40:26.679Z,101155.88
2022-11-01T11:42:56.015Z,101157.06
2022-11-01T11:45:29.474Z,101157.47
2022-11-01T11:47:58.850Z,101161.31
2022-11-01T11:50:34.563Z,101167.53
2022-11-01T11:53:20.209Z,101171.59
2022-11-01T11:55:48.672Z,101167.69
2022-11-01T11:58:20.270Z,101174.44
2022-11-01T12:00:50.171Z,101175.25
2022-11-01T12:03:17.452Z,101182.91
2022-11-01T12:05:59.820Z,101172.22
2022-11-01T12:08:44.903Z,101165.91
2022-11-01T12:11:12.040Z,101165.69
2022-11-01T12:13:42.420Z,101162.09
2022-11-01T12:16:17.738Z,101167.34
2022-11-01T12:18:50.060Z,101172.88
2022-11-01T12:21:34.288Z,101171.41
2022-11-01T12:24:23.969Z,101167.34
2022-11-01T12:26:53.357Z,101168.59
2022-11-01T12:29:33.501Z,101173.06
2022-11-01T12:32:16.556Z,101170.06
2022-11-01T12:34:48.636Z,101176.53
2022-11-01T12:37:23.407Z,101181.03
2022-11-01T12:40:02.278Z,101191.69
2022-11-01T12:42:35.521Z,101183.44
2022-11-01T12:45:12.551Z,101190.22
2022-11-01T12:47:44.118Z,101192.41
2022-11-01T12:50:28.194Z,101182.25
2022-11-01T12:53:10.425Z,101175.91
2022-11-01T12:55:41.994Z,101178.56
2022-11-01T12:58:16.921Z,101175.81
2022-11-01T13:01:16.311Z,101186.59
2022-11-01T13:03:57.796Z,101184.63
2022-11-01T13:06:59.343Z,101182.56
2022-11-01T13:09:54.488Z,101187.13
2022-11-01T13:12:41.060Z,101180.50
2022-11-01T13:15:25.775Z,101184.75
2022-11-01T13:18:09.552Z,101177.94
2022-11-01T13:21:13.404Z,101185.66
2022-11-01T13:23:46.301Z,101197.78
2022-11-01T13:26:25.457Z,101191.66
2022-11-01T13:29:17.645Z,101190.63
2022-11-01T13:32:02.817Z,101190.31
2022-11-01T13:34:55.606Z,101190.66
2022-11-01T13:38:12.490Z,101198.13
2022-11-01T13:40:56.903Z,101183.00
2022-11-01T13:43:30.193Z,101192.50
2022-11-01T13:46:19.141Z,101191.72
2022-11-01T13:49:10.513Z,101193.06
2022-11-01T13:51:42.014Z,101194.22
2022-11-01T13:54:22.864Z,101199.72
2022-11-01T13:56:57.167Z,101205.38
2022-11-01T13:59:47.131Z,101209.72
2022-11-01T14:02:34.579Z,101201.06
2022-11-01T14:05:12.636Z,101199.28
2022-11-01T14:07:45.183Z,101201.41
2022-11-01T14:10:31.770Z,101207.41
2022-11-01T14:12:59.496Z,101211.53
2022-11-01T14:15:28.153Z,101216.69
2022-11-01T14:17:57.595Z,101209.91
2022-11-01T14:20:31.478Z,101208.09
2022-11-01T14:22:58.526Z,101215.63
2022-11-01T14:25:30.099Z,101221.56
2022-11-01T14:28:16.388Z,101217.41
2022-11-01T14:30:46.220Z,101215.75
2022-11-01T14:33:15.911Z,101218.44
2022-11-01T14:35:47.110Z,101224.38
2022-11-01T14:38:20.189Z,101226.25
2022-11-01T14:40:59.254Z,101226.56
2022-11-01T14:43:35.170Z,101224.38
2022-11-01T14:46:04.729Z,101228.69
2022-11-01T14:48:55.605Z,101227.75
2022-11-01T14:51:30.883Z,101232.38
2022-11-01T14:54:04.681Z,101241.06
2022-11-01T14:56:38.442Z,101232.84
2022-11-01T14:59:24.811Z,101239.63
2022-11-01T15:01:58.154Z,101242.06
2022-11-01T15:04:32.367Z,101244.44
2022-11-01T15:07:00.198Z,101242.13
2022-11-01T15:09:28.701Z,101233.97
2022-11-01T15:12:03.579Z,101238.28
2022-11-01T15:14:38.744Z,101237.19
2022-11-01T15:17:07.570Z,101248.50
2022-11-01T15:19:37.891Z,101253.13
2022-11-01T15:22:06.398Z,101255.44
2022-11-01T15:24:34.678Z,101252.28
2022-11-01T15:27:07.337Z,101251.94
2022-11-01T15:29:33.911Z,101250.47
2022-11-01T15:32:01.745Z,101252.97
2022-11-01T15:34:30.672Z,101256.72
2022-11-01T15:36:59.791Z,101267.50
2022-11-01T15:39:29.327Z,101265.78
2022-11-01T15:42:07.019Z,101265.09
2022-11-01T15:44:33.433Z,101265.59
2022-11-01T15:47:02.101Z,101262.16
2022-11-01T15:49:36.997Z,101264.09
2022-11-01T15:52:15.046Z,101273.81
2022-11-01T15:54:55.279Z,101274.75
2022-11-01T15:57:33.734Z,101265.97
2022-11-01T16:00:07.127Z,101266.94
2022-11-01T16:02:43.146Z,101273.84
2022-11-01T16:05:12.429Z,101269.97
2022-11-01T16:07:40.291Z,101280.56
2022-11-01T16:10:09.220Z,101283.50
2022-11-01T16:12:38.549Z,101284.75
2022-11-01T16:15:23.819Z,101282.31
2022-11-01T16:17:52.245Z,101283.44
2022-11-01T16:20:37.377Z,101287.31
2022-11-01T16:23:06.416Z,101288.78
2022-11-01T16:25:38.032Z,101294.53
2022-11-01T16:28:09.052Z,101294.72
2022-11-01T16:30:36.527Z,101298.69
2022-11-01T16:33:20.349Z,101300.97
2022-11-01T16:35:49.493Z,101288.19
2022-11-01T16:38:35.895Z,101302.53
2022-11-01T16:41:13.913Z,101304.59
2022-11-01T16:43:40.375Z,101310.78
2022-11-01T16:46:06.796Z,101311.06
2022-11-01T16:48:47.413Z,101310.78
2022-11-01T16:51:14.466Z,101318.50
2022-11-01T16:53:40.900Z,101323.31
2022-11-01T16:56:34.984Z,101328.38
2022-11-01T16:59:04.415Z,101329.97
2022-11-01T17:01:35.404Z,101333.63
2022-11-01T17:04:02.952Z,101334.25
2022-11-01T17:06:32.274Z,101335.00
2022-11-01T17:09:01.070Z,101339.59
2022-11-01T17:11:27.444Z,101343.91
2022-11-01T17:13:53.870Z,101350.41
2022-11-01T17:16:23.749Z,101354.09
2022-11-01T17:18:54.194Z,101358.38
2022-11-01T17:21:21.457Z,101366.59
2022-11-01T17:23:48.297Z,101367.13
2022-11-01T17:26:16.122Z,101365.47
2022-11-01T17:28:45.502Z,101367.19
2022-11-01T17:31:14.284Z,101375.66
2022-11-01T17:33:40.844Z,101374.84
2022-11-01T17:36:13.032Z,101372.84
2022-11-01T17:38:40.378Z,101385.81
2022-11-01T17:41:10.837Z,101381.91
2022-11-01T17:43:37.559Z,101386.72
2022-11-01T17:46:14.563Z,101378.38
2022-11-01T17:48:41.057Z,101385.47
2022-11-01T17:51:07.448Z,101387.75
2022-11-01T17:53:34.734Z,101381.34
2022-11-01T17:56:01.152Z,101381.94
2022-11-01T17:58:27.577Z,101387.59
2022-11-01T18:00:54.004Z,101387.03
2022-11-01T18:03:20.438Z,101389.84
2022-11-01T18:05:46.812Z,101380.03
2022-11-01T18:08:17.785Z,101390.28
2022-11-01T18:10:54.513Z,101394.28
2022-11-01T18:13:49.637Z,101394.88
2022-11-01T18:16:24.507Z,101398.91
2022-11-01T18:19:34.980Z,101393.84
2022-11-01T18:22:19.873Z,101396.72
2022-11-01T18:25:02.542Z,101398.94
2022-11-01T18:27:37.489Z,101403.78
2022-11-01T18:30:18.803Z,101400.69
2022-11-01T18:32:50.807Z,101396.50
2022-11-01T18:35:24.040Z,101401.34
2022-11-01T18:38:23.416Z,101406.41
2022-11-01T18:41:00.318Z,101398.59
2022-11-01T18:43:37.894Z,101400.81
2022-11-01T18:46:27.067Z,101407.84
2022-11-01T18:49:00.462Z,101409.63
2022-11-01T18:51:33.048Z,101408.59
2022-11-01T18:54:26.745Z,101410.13
2022-11-01T18:57:04.137Z,101422.84
2022-11-01T18:59:35.535Z,101422.41
2022-11-01T19:02:11.089Z,101416.50
2022-11-01T19:04:39.260Z,101417.09
2022-11-01T19:07:19.087Z,101425.63
2022-11-01T19:09:54.314Z,101426.22
2022-11-01T19:12:29.754Z,101419.19
2022-11-01T19:14:59.585Z,101421.41
2022-11-01T19:17:28.630Z,101421.59
2022-11-01T19:19:56.818Z,101421.06
2022-11-01T19:22:37.206Z,101411.72
2022-11-01T19:25:15.972Z,101420.13
2022-11-01T19:27:43.065Z,101414.28
2022-11-01T19:30:23.893Z,101423.66
2022-11-01T19:32:51.905Z,101423.66
2022-11-01T19:35:22.005Z,101430.97
2022-11-01T19:37:52.445Z,101437.72
2022-11-01T19:40:28.382Z,101440.53
2022-11-01T19:42:57.412Z,101445.31
2022-11-01T19:45:29.709Z,101445.06
2022-11-01T19:47:57.965Z,101438.03
2022-11-01T19:50:31.377Z,101433.25
2022-11-01T19:52:58.581Z,101441.69
2022-11-01T19:55:36.520Z,101447.56
2022-11-01T19:58:22.620Z,101446.19
2022-11-01T20:00:49.594Z,101449.84
2022-11-01T20:03:37.537Z,101452.38
2022-11-01T20:06:11.250Z,101460.22
2022-11-01T20:08:37.681Z,101468.38
2022-11-01T20:11:04.064Z,101457.41
2022-11-01T20:13:30.485Z,101468.66
2022-11-01T20:15:56.891Z,101464.69
2022-11-01T20:18:23.284Z,101462.19
2022-11-01T20:20:49.721Z,101466.66
2022-11-01T20:23:31.591Z,101464.69
2022-11-01T20:25:58.207Z,101460.19
2022-11-01T20:28:24.597Z,101464.69
2022-11-01T20:30:51.405Z,101470.56
2022-11-01T20:33:18.085Z,101472.28
2022-11-01T20:35:44.478Z,101471.16
2022-11-01T20:38:10.937Z,101467.78
2022-11-01T20:40:37.382Z,101467.50
2022-11-01T20:43:04.372Z,101472.78
2022-11-01T20:45:31.053Z,101470.25
2022-11-01T20:47:57.474Z,101474.19
2022-11-01T20:50:23.870Z,101477.56
2022-11-01T20:52:50.309Z,101477.81
2022-11-01T20:55:17.207Z,101467.41
2022-11-01T20:57:43.824Z,101469.38
2022-11-01T21:00:13.842Z,101466.31
2022-11-01T21:02:40.625Z,101465.72
2022-11-01T21:05:18.104Z,101471.06
2022-11-01T21:07:47.761Z,101474.63
2022-11-01T21:10:37.772Z,101471.25
2022-11-01T21:13:21.704Z,101473.50
2022-11-01T21:15:48.608Z,101472.06
2022-11-01T21:18:14.918Z,101470.63
2022-11-01T21:20:44.706Z,101470.38
2022-11-01T21:23:26.874Z,101469.31
2022-11-01T21:25:57.779Z,101467.88
2022-11-01T21:28:34.008Z,101462.53
2022-11-01T21:31:17.202Z,101466.44
2022-11-01T21:33:58.742Z,101460.25
2022-11-01T21:36:36.014Z,101453.00
2022-11-01T21:39:10.063Z,101461.06
2022-11-01T21:41:42.083Z,101457.94
2022-11-01T21:44:20.455Z,101458.50
2022-11-01T21:47:08.849Z,101463.53
2022-11-01T21:49:36.526Z,101472.72
2022-11-01T21:52:05.520Z,101475.00
2022-11-01T21:54:34.199Z,101479.78
2022-11-01T21:57:01.590Z,101470.50
2022-11-01T21:59:28.519Z,101468.47
2022-11-01T22:01:56.202Z,101469.09
2022-11-01T22:04:24.842Z,101468.53
2022-11-01T22:06:55.000Z,101469.13
2022-11-01T22:09:21.645Z,101465.75
2022-11-01T22:11:48.014Z,101462.34
2022-11-01T22:14:14.405Z,101456.19
2022-11-01T22:16:40.819Z,101464.84
2022-11-01T22:19:07.734Z,101467.66
2022-11-01T22:21:34.199Z,101467.94
2022-11-01T22:24:01.316Z,101461.78
2022-11-01T22:26:27.810Z,101461.84
2022-11-01T22:28:54.204Z,101468.72
2022-11-01T22:31:21.052Z,101469.22
2022-11-01T22:33:51.138Z,101477.34
2022-11-01T22:36:23.203Z,101472.59
2022-11-01T22:38:50.364Z,101469.47
2022-11-01T22:41:27.085Z,101470.31
2022-11-01T22:43:59.329Z,101469.72
2022-11-01T22:46:30.063Z,101473.13
2022-11-01T22:49:01.853Z,101471.13
2022-11-01T22:51:40.834Z,101465.75
2022-11-01T22:54:41.197Z,101471.31
2022-11-01T22:57:21.834Z,101468.72
2022-11-01T22:59:52.413Z,101470.72
2022-11-01T23:02:29.107Z,101471.72
2022-11-01T23:05:20.291Z,101463.06
2022-11-01T23:07:54.528Z,101460.47
2022-11-01T23:10:27.372Z,101473.28
2022-11-01T23:13:34.224Z,101471.06
2022-11-01T23:16:03.092Z,101471.97
2022-11-01T23:18:32.787Z,101458.75
2022-11-01T23:21:02.958Z,101464.59
2022-11-01T23:23:29.355Z,101460.09
2022-11-01T23:25:59.152Z,101458.16
2022-11-01T23:28:26.976Z,101454.13
2022-11-01T23:30:54.152Z,101456.28
2022-11-01T23:33:22.441Z,101460.69
2022-11-01T23:35:53.393Z,101462.03
2022-11-01T23:38:38.131Z,101460.00
2022-11-01T23:41:04.630Z,101465.00
2022-11-01T23:43:35.965Z,101465.00
2022-11-01T23:46:02.401Z,101465.84
2022-11-01T23:48:29.330Z,101466.66
2022-11-01T23:50:56.528Z,101468.25
2022-11-01T23:53:31.905Z,101471.72
2022-11-01T23:55:59.614Z,101464.16
2022-11-01T23:58:31.166Z,101467.91
